Takeley, United Kingdom
Current Conditions -  °F | °C
As of 7:50 PM on Saturday 25 Oct 2014 (Local Time) from EGSS Reporting Station
Overcast Overcast  
Wind Chill: 54°   Ceiling: 4000
Heat Index: 54°   Visibility: 6mi
Dew Point: 46°   Wind: 9mph
Humidity: 77%   Direction: 210°SSW
Pressure: 30.09"   Gusts: NA
Location:  51.87°N, 0.27°E
Report Text: EGSS 251850Z 21008KT 9999 OVC040 12/08 Q1019
Loading
Personal Weather Stations






























Interactive Weather Map New forecast layout! Learn more

10-Day Weather Forecast

Advertisements
Track Severe Weather on mobile